TSE weather

Astana International Airport
Astana, Akmola Region, Kazakhstan

Public forecast

Using degrees Celsius for public forecast. Weather courtesy of forecast.io.

METAR (pilot weather report)

Retrieved 2019/04/20 04:00 UTC (6 minutes ago):

UACC 200400Z 05011MPS 9999 -SN BKN013 OVC033 M02/M04 Q1012 R04/450550 NOSIG RMK QFE728/0970

TAF (pilot weather forecast)

Forecast is more than 12 hours old.

Retrieved 2019/04/19 00:18 UTC (1 day ago):

TAF UACC 192300Z 2000/2024 04010MPS 5000 -SN BKN007 OVC020 TX02/2010Z TNM04/2001Z TEMPO 2000/2006 05013MPS 2000 SHSN BKN004 BKN015CB FM200600 03006MPS 9999 BKN020 TEMPO 2006/2009 5000 -SNRA BKN007 FM201500 25003MPS 3100 BR FEW004